sensor_id;sensor_type;location;lat;lon;timestamp;P1;durP1;ratioP1;P2;durP2;ratioP2
549;SDS011;20066;48.764;9.176;2024-03-08T00:00:31;38.38;;;19.75;;
549;SDS011;20066;48.764;9.176;2024-03-08T00:02:59;41.97;;;20.40;;
549;SDS011;20066;48.764;9.176;2024-03-08T00:05:29;40.22;;;20.35;;
549;SDS011;20066;48.764;9.176;2024-03-08T00:07:58;44.22;;;22.25;;
549;SDS011;20066;48.764;9.176;2024-03-08T00:10:26;41.40;;;20.63;;
549;SDS011;20066;48.764;9.176;2024-03-08T00:12:56;40.42;;;20.55;;
549;SDS011;20066;48.764;9.176;2024-03-08T00:15:25;40.10;;;19.65;;
549;SDS011;20066;48.764;9.176;2024-03-08T00:17:56;39.95;;;21.33;;
549;SDS011;20066;48.764;9.176;2024-03-08T00:20:24;38.17;;;18.30;;
549;SDS011;20066;48.764;9.176;2024-03-08T00:22:52;40.10;;;21.00;;
549;SDS011;20066;48.764;9.176;2024-03-08T00:25:20;36.75;;;20.35;;
549;SDS011;20066;48.764;9.176;2024-03-08T00:27:49;41.65;;;19.92;;
549;SDS011;20066;48.764;9.176;2024-03-08T00:30:18;43.60;;;20.63;;
549;SDS011;20066;48.764;9.176;2024-03-08T00:32:47;39.25;;;18.90;;
549;SDS011;20066;48.764;9.176;2024-03-08T00:35:15;40.35;;;18.65;;
549;SDS011;20066;48.764;9.176;2024-03-08T00:37:44;43.10;;;20.98;;
549;SDS011;20066;48.764;9.176;2024-03-08T00:40:14;45.25;;;21.88;;
549;SDS011;20066;48.764;9.176;2024-03-08T00:42:42;43.95;;;22.35;;
549;SDS011;20066;48.764;9.176;2024-03-08T00:45:10;44.97;;;22.10;;
549;SDS011;20066;48.764;9.176;2024-03-08T00:47:40;40.90;;;21.95;;
549;SDS011;20066;48.764;9.176;2024-03-08T00:50:10;40.65;;;19.20;;
549;SDS011;20066;48.764;9.176;2024-03-08T00:52:39;44.00;;;21.80;;
549;SDS011;20066;48.764;9.176;2024-03-08T00:55:07;40.90;;;21.83;;
549;SDS011;20066;48.764;9.176;2024-03-08T00:57:37;40.13;;;20.40;;
549;SDS011;20066;48.764;9.176;2024-03-08T01:00:06;42.33;;;22.30;;
549;SDS011;20066;48.764;9.176;2024-03-08T01:02:40;43.13;;;22.73;;
549;SDS011;20066;48.764;9.176;2024-03-08T01:05:08;42.63;;;21.65;;
549;SDS011;20066;48.764;9.176;2024-03-08T01:07:36;43.50;;;22.45;;
549;SDS011;20066;48.764;9.176;2024-03-08T01:10:04;42.53;;;21.90;;
549;SDS011;20066;48.764;9.176;2024-03-08T01:12:36;42.63;;;20.40;;
549;SDS011;20066;48.764;9.176;2024-03-08T01:15:04;39.67;;;20.85;;
549;SDS011;20066;48.764;9.176;2024-03-08T01:17:33;46.38;;;22.85;;
549;SDS011;20066;48.764;9.176;2024-03-08T01:20:02;48.88;;;23.80;;
549;SDS011;20066;48.764;9.176;2024-03-08T01:22:33;40.30;;;22.27;;
549;SDS011;20066;48.764;9.176;2024-03-08T01:25:00;45.72;;;22.90;;
549;SDS011;20066;48.764;9.176;2024-03-08T01:27:31;46.42;;;23.40;;
549;SDS011;20066;48.764;9.176;2024-03-08T01:29:58;48.75;;;21.88;;
549;SDS011;20066;48.764;9.176;2024-03-08T01:32:26;44.95;;;22.33;;
549;SDS011;20066;48.764;9.176;2024-03-08T01:34:54;39.22;;;21.50;;
549;SDS011;20066;48.764;9.176;2024-03-08T01:37:23;37.88;;;20.70;;
549;SDS011;20066;48.764;9.176;2024-03-08T01:39:51;39.92;;;21.10;;
549;SDS011;20066;48.764;9.176;2024-03-08T01:42:19;42.88;;;22.15;;
549;SDS011;20066;48.764;9.176;2024-03-08T01:44:48;39.58;;;21.20;;
549;SDS011;20066;48.764;9.176;2024-03-08T01:47:16;40.85;;;22.58;;
549;SDS011;20066;48.764;9.176;2024-03-08T01:49:46;41.90;;;21.73;;
549;SDS011;20066;48.764;9.176;2024-03-08T01:52:15;46.33;;;22.67;;
549;SDS011;20066;48.764;9.176;2024-03-08T01:54:46;44.45;;;21.95;;
549;SDS011;20066;48.764;9.176;2024-03-08T01:57:14;39.47;;;21.27;;
549;SDS011;20066;48.764;9.176;2024-03-08T01:59:43;44.67;;;23.10;;
549;SDS011;20066;48.764;9.176;2024-03-08T02:02:11;41.90;;;20.92;;
549;SDS011;20066;48.764;9.176;2024-03-08T02:04:40;44.47;;;22.70;;
549;SDS011;20066;48.764;9.176;2024-03-08T02:07:08;43.92;;;22.42;;
549;SDS011;20066;48.764;9.176;2024-03-08T02:09:36;41.85;;;21.10;;
549;SDS011;20066;48.764;9.176;2024-03-08T02:12:07;38.20;;;20.42;;
549;SDS011;20066;48.764;9.176;2024-03-08T02:14:35;37.28;;;18.70;;
549;SDS011;20066;48.764;9.176;2024-03-08T02:17:03;39.15;;;20.98;;
549;SDS011;20066;48.764;9.176;2024-03-08T02:19:32;42.28;;;21.80;;
549;SDS011;20066;48.764;9.176;2024-03-08T02:22:03;43.10;;;21.20;;
549;SDS011;20066;48.764;9.176;2024-03-08T02:24:32;39.03;;;19.30;;
549;SDS011;20066;48.764;9.176;2024-03-08T02:27:01;42.22;;;22.10;;
549;SDS011;20066;48.764;9.176;2024-03-08T02:29:29;40.97;;;19.60;;
549;SDS011;20066;48.764;9.176;2024-03-08T02:31:58;43.50;;;20.80;;
549;SDS011;20066;48.764;9.176;2024-03-08T02:34:26;36.72;;;20.15;;
549;SDS011;20066;48.764;9.176;2024-03-08T02:36:54;38.88;;;20.88;;
549;SDS011;20066;48.764;9.176;2024-03-08T02:39:24;38.38;;;18.58;;
549;SDS011;20066;48.764;9.176;2024-03-08T02:41:54;38.13;;;20.10;;
549;SDS011;20066;48.764;9.176;2024-03-08T02:44:22;35.60;;;18.92;;
549;SDS011;20066;48.764;9.176;2024-03-08T02:46:49;37.38;;;18.88;;
549;SDS011;20066;48.764;9.176;2024-03-08T02:49:17;41.13;;;21.67;;
549;SDS011;20066;48.764;9.176;2024-03-08T02:51:45;35.53;;;19.35;;
549;SDS011;20066;48.764;9.176;2024-03-08T02:54:13;42.10;;;19.80;;
549;SDS011;20066;48.764;9.176;2024-03-08T02:56:42;38.53;;;20.23;;
549;SDS011;20066;48.764;9.176;2024-03-08T02:59:10;40.03;;;20.73;;
549;SDS011;20066;48.764;9.176;2024-03-08T03:01:38;36.30;;;20.48;;
549;SDS011;20066;48.764;9.176;2024-03-08T03:04:07;36.53;;;19.00;;
549;SDS011;20066;48.764;9.176;2024-03-08T03:06:35;38.08;;;18.90;;
549;SDS011;20066;48.764;9.176;2024-03-08T03:09:03;34.35;;;18.27;;
549;SDS011;20066;48.764;9.176;2024-03-08T03:11:32;35.45;;;19.25;;
549;SDS011;20066;48.764;9.176;2024-03-08T03:14:02;35.38;;;17.83;;
549;SDS011;20066;48.764;9.176;2024-03-08T03:16:31;34.95;;;18.40;;
549;SDS011;20066;48.764;9.176;2024-03-08T03:18:59;33.60;;;17.90;;
549;SDS011;20066;48.764;9.176;2024-03-08T03:21:29;32.03;;;17.23;;
549;SDS011;20066;48.764;9.176;2024-03-08T03:23:58;33.40;;;17.98;;
549;SDS011;20066;48.764;9.176;2024-03-08T03:26:28;31.88;;;18.30;;
549;SDS011;20066;48.764;9.176;2024-03-08T03:28:57;38.42;;;19.45;;
549;SDS011;20066;48.764;9.176;2024-03-08T03:31:28;32.95;;;18.48;;
549;SDS011;20066;48.764;9.176;2024-03-08T03:33:56;36.00;;;19.10;;
549;SDS011;20066;48.764;9.176;2024-03-08T03:36:28;37.22;;;19.00;;
549;SDS011;20066;48.764;9.176;2024-03-08T03:38:56;35.70;;;18.95;;
549;SDS011;20066;48.764;9.176;2024-03-08T03:41:32;29.77;;;18.05;;
549;SDS011;20066;48.764;9.176;2024-03-08T03:44:00;33.70;;;19.20;;
549;SDS011;20066;48.764;9.176;2024-03-08T03:46:30;36.05;;;18.70;;
549;SDS011;20066;48.764;9.176;2024-03-08T03:48:57;38.05;;;19.45;;
549;SDS011;20066;48.764;9.176;2024-03-08T03:51:25;33.58;;;18.70;;
549;SDS011;20066;48.764;9.176;2024-03-08T03:53:53;35.65;;;18.45;;
549;SDS011;20066;48.764;9.176;2024-03-08T03:56:24;39.13;;;19.20;;
549;SDS011;20066;48.764;9.176;2024-03-08T03:58:52;30.73;;;18.15;;
549;SDS011;20066;48.764;9.176;2024-03-08T04:01:20;35.60;;;18.50;;
549;SDS011;20066;48.764;9.176;2024-03-08T04:03:50;33.08;;;19.20;;
549;SDS011;20066;48.764;9.176;2024-03-08T04:06:18;36.17;;;18.50;;
549;SDS011;20066;48.764;9.176;2024-03-08T04:08:45;39.70;;;19.77;;
549;SDS011;20066;48.764;9.176;2024-03-08T04:11:13;40.20;;;21.42;;
549;SDS011;20066;48.764;9.176;2024-03-08T04:13:43;37.78;;;21.02;;
549;SDS011;20066;48.764;9.176;2024-03-08T04:16:11;37.80;;;21.05;;
549;SDS011;20066;48.764;9.176;2024-03-08T04:18:39;40.03;;;22.65;;
549;SDS011;20066;48.764;9.176;2024-03-08T04:21:08;38.13;;;21.15;;
549;SDS011;20066;48.764;9.176;2024-03-08T04:23:37;38.20;;;21.35;;
549;SDS011;20066;48.764;9.176;2024-03-08T04:26:04;39.10;;;20.48;;
549;SDS011;20066;48.764;9.176;2024-03-08T04:28:33;38.10;;;20.88;;
549;SDS011;20066;48.764;9.176;2024-03-08T04:31:01;40.60;;;21.25;;
549;SDS011;20066;48.764;9.176;2024-03-08T04:33:29;36.22;;;20.33;;
549;SDS011;20066;48.764;9.176;2024-03-08T04:35:57;38.63;;;21.08;;
549;SDS011;20066;48.764;9.176;2024-03-08T04:38:26;40.47;;;20.92;;
549;SDS011;20066;48.764;9.176;2024-03-08T04:40:55;44.97;;;21.65;;
549;SDS011;20066;48.764;9.176;2024-03-08T04:43:22;37.35;;;18.77;;
549;SDS011;20066;48.764;9.176;2024-03-08T04:45:52;41.45;;;21.83;;
549;SDS011;20066;48.764;9.176;2024-03-08T04:48:20;45.53;;;22.80;;
549;SDS011;20066;48.764;9.176;2024-03-08T04:50:48;39.53;;;22.38;;
549;SDS011;20066;48.764;9.176;2024-03-08T04:53:16;37.95;;;20.85;;
549;SDS011;20066;48.764;9.176;2024-03-08T04:55:45;39.30;;;22.15;;
549;SDS011;20066;48.764;9.176;2024-03-08T04:58:13;39.30;;;21.38;;
549;SDS011;20066;48.764;9.176;2024-03-08T05:00:41;42.60;;;24.42;;
549;SDS011;20066;48.764;9.176;2024-03-08T05:03:09;41.75;;;22.38;;
549;SDS011;20066;48.764;9.176;2024-03-08T05:05:37;42.13;;;20.88;;
549;SDS011;20066;48.764;9.176;2024-03-08T05:08:07;44.50;;;23.02;;
549;SDS011;20066;48.764;9.176;2024-03-08T05:10:35;42.13;;;21.55;;
549;SDS011;20066;48.764;9.176;2024-03-08T05:13:04;46.15;;;23.05;;
549;SDS011;20066;48.764;9.176;2024-03-08T05:15:32;41.75;;;22.08;;
549;SDS011;20066;48.764;9.176;2024-03-08T05:18:01;46.33;;;23.17;;
549;SDS011;20066;48.764;9.176;2024-03-08T05:20:29;42.03;;;21.55;;
549;SDS011;20066;48.764;9.176;2024-03-08T05:22:57;40.83;;;21.85;;
549;SDS011;20066;48.764;9.176;2024-03-08T05:25:26;44.30;;;22.50;;
549;SDS011;20066;48.764;9.176;2024-03-08T05:27:54;40.78;;;22.27;;
549;SDS011;20066;48.764;9.176;2024-03-08T05:30:24;41.63;;;22.65;;
549;SDS011;20066;48.764;9.176;2024-03-08T05:32:52;36.92;;;20.95;;
549;SDS011;20066;48.764;9.176;2024-03-08T05:35:20;40.58;;;21.63;;
549;SDS011;20066;48.764;9.176;2024-03-08T05:37:47;43.97;;;22.63;;
549;SDS011;20066;48.764;9.176;2024-03-08T05:40:15;43.13;;;21.55;;
549;SDS011;20066;48.764;9.176;2024-03-08T05:42:46;38.08;;;21.02;;
549;SDS011;20066;48.764;9.176;2024-03-08T05:45:14;40.95;;;22.95;;
549;SDS011;20066;48.764;9.176;2024-03-08T05:47:43;46.22;;;22.92;;
549;SDS011;20066;48.764;9.176;2024-03-08T05:50:12;43.15;;;23.55;;
549;SDS011;20066;48.764;9.176;2024-03-08T05:52:42;42.95;;;23.55;;
549;SDS011;20066;48.764;9.176;2024-03-08T05:55:10;41.70;;;22.95;;
549;SDS011;20066;48.764;9.176;2024-03-08T05:57:40;37.97;;;21.75;;
549;SDS011;20066;48.764;9.176;2024-03-08T06:00:09;44.65;;;23.75;;
549;SDS011;20066;48.764;9.176;2024-03-08T06:02:38;41.22;;;21.75;;
549;SDS011;20066;48.764;9.176;2024-03-08T06:05:10;40.58;;;22.98;;
549;SDS011;20066;48.764;9.176;2024-03-08T06:07:38;46.53;;;24.42;;
549;SDS011;20066;48.764;9.176;2024-03-08T06:10:08;43.78;;;22.92;;
549;SDS011;20066;48.764;9.176;2024-03-08T06:12:38;45.83;;;24.45;;
549;SDS011;20066;48.764;9.176;2024-03-08T06:15:08;41.60;;;22.13;;
549;SDS011;20066;48.764;9.176;2024-03-08T06:17:37;40.08;;;22.35;;
549;SDS011;20066;48.764;9.176;2024-03-08T06:20:05;40.05;;;21.98;;
549;SDS011;20066;48.764;9.176;2024-03-08T06:22:38;44.75;;;22.00;;
549;SDS011;20066;48.764;9.176;2024-03-08T06:25:07;42.58;;;21.70;;
549;SDS011;20066;48.764;9.176;2024-03-08T06:27:36;38.88;;;21.23;;
549;SDS011;20066;48.764;9.176;2024-03-08T06:30:04;42.38;;;22.40;;
549;SDS011;20066;48.764;9.176;2024-03-08T06:32:36;41.50;;;21.42;;
549;SDS011;20066;48.764;9.176;2024-03-08T06:35:04;40.53;;;21.67;;
549;SDS011;20066;48.764;9.176;2024-03-08T06:37:33;40.60;;;22.48;;
549;SDS011;20066;48.764;9.176;2024-03-08T06:40:03;42.55;;;21.58;;
549;SDS011;20066;48.764;9.176;2024-03-08T06:42:31;42.97;;;22.50;;
549;SDS011;20066;48.764;9.176;2024-03-08T06:45:01;44.00;;;22.20;;
549;SDS011;20066;48.764;9.176;2024-03-08T06:47:31;43.65;;;22.70;;
549;SDS011;20066;48.764;9.176;2024-03-08T06:50:00;44.78;;;21.85;;
549;SDS011;20066;48.764;9.176;2024-03-08T06:52:28;46.90;;;23.20;;
549;SDS011;20066;48.764;9.176;2024-03-08T06:54:55;40.65;;;21.50;;
549;SDS011;20066;48.764;9.176;2024-03-08T06:57:25;46.30;;;22.40;;
549;SDS011;20066;48.764;9.176;2024-03-08T06:59:52;38.75;;;20.63;;
549;SDS011;20066;48.764;9.176;2024-03-08T07:02:21;37.40;;;20.48;;
549;SDS011;20066;48.764;9.176;2024-03-08T07:04:51;37.63;;;20.10;;
549;SDS011;20066;48.764;9.176;2024-03-08T07:07:19;44.63;;;21.20;;
549;SDS011;20066;48.764;9.176;2024-03-08T07:09:47;44.95;;;21.83;;
549;SDS011;20066;48.764;9.176;2024-03-08T07:12:16;41.53;;;21.33;;
549;SDS011;20066;48.764;9.176;2024-03-08T07:14:46;43.75;;;21.55;;
549;SDS011;20066;48.764;9.176;2024-03-08T07:17:13;43.65;;;22.70;;
549;SDS011;20066;48.764;9.176;2024-03-08T07:19:42;38.90;;;20.10;;
549;SDS011;20066;48.764;9.176;2024-03-08T07:22:11;36.35;;;20.48;;
549;SDS011;20066;48.764;9.176;2024-03-08T07:24:39;41.17;;;20.45;;
549;SDS011;20066;48.764;9.176;2024-03-08T07:27:22;41.65;;;19.95;;
549;SDS011;20066;48.764;9.176;2024-03-08T07:29:51;35.45;;;20.40;;
549;SDS011;20066;48.764;9.176;2024-03-08T07:32:34;43.38;;;21.63;;
549;SDS011;20066;48.764;9.176;2024-03-08T07:35:02;42.25;;;20.58;;
549;SDS011;20066;48.764;9.176;2024-03-08T07:37:30;39.47;;;19.40;;
549;SDS011;20066;48.764;9.176;2024-03-08T07:39:58;40.65;;;20.40;;
549;SDS011;20066;48.764;9.176;2024-03-08T07:42:26;41.58;;;20.73;;
549;SDS011;20066;48.764;9.176;2024-03-08T07:44:56;42.72;;;20.92;;
549;SDS011;20066;48.764;9.176;2024-03-08T07:47:24;39.08;;;18.33;;
549;SDS011;20066;48.764;9.176;2024-03-08T07:49:52;36.90;;;19.45;;
549;SDS011;20066;48.764;9.176;2024-03-08T07:52:21;38.35;;;18.13;;
549;SDS011;20066;48.764;9.176;2024-03-08T07:54:49;32.80;;;17.63;;
549;SDS011;20066;48.764;9.176;2024-03-08T07:57:17;39.92;;;18.92;;
549;SDS011;20066;48.764;9.176;2024-03-08T07:59:45;37.42;;;19.05;;
549;SDS011;20066;48.764;9.176;2024-03-08T08:02:14;38.28;;;18.30;;
549;SDS011;20066;48.764;9.176;2024-03-08T08:04:43;33.80;;;18.88;;
549;SDS011;20066;48.764;9.176;2024-03-08T08:07:11;32.65;;;16.10;;
549;SDS011;20066;48.764;9.176;2024-03-08T08:09:41;36.05;;;17.10;;
549;SDS011;20066;48.764;9.176;2024-03-08T08:12:09;36.95;;;16.92;;
549;SDS011;20066;48.764;9.176;2024-03-08T08:14:38;30.65;;;16.42;;
549;SDS011;20066;48.764;9.176;2024-03-08T08:17:07;35.38;;;17.50;;
549;SDS011;20066;48.764;9.176;2024-03-08T08:19:41;36.15;;;15.73;;
549;SDS011;20066;48.764;9.176;2024-03-08T08:22:09;31.42;;;17.60;;
549;SDS011;20066;48.764;9.176;2024-03-08T08:24:37;35.53;;;17.70;;
549;SDS011;20066;48.764;9.176;2024-03-08T08:27:06;33.75;;;18.00;;
549;SDS011;20066;48.764;9.176;2024-03-08T08:29:35;32.00;;;15.10;;
549;SDS011;20066;48.764;9.176;2024-03-08T08:32:03;38.55;;;17.00;;
549;SDS011;20066;48.764;9.176;2024-03-08T08:34:32;36.80;;;17.88;;
549;SDS011;20066;48.764;9.176;2024-03-08T08:37:01;36.28;;;16.90;;
549;SDS011;20066;48.764;9.176;2024-03-08T08:39:29;45.45;;;19.33;;
549;SDS011;20066;48.764;9.176;2024-03-08T08:41:57;35.75;;;18.70;;
549;SDS011;20066;48.764;9.176;2024-03-08T08:44:25;35.78;;;18.30;;
549;SDS011;20066;48.764;9.176;2024-03-08T08:46:53;37.63;;;17.83;;
549;SDS011;20066;48.764;9.176;2024-03-08T08:49:31;40.25;;;18.60;;
549;SDS011;20066;48.764;9.176;2024-03-08T08:51:59;33.28;;;16.83;;
549;SDS011;20066;48.764;9.176;2024-03-08T08:54:39;34.28;;;18.02;;
549;SDS011;20066;48.764;9.176;2024-03-08T08:57:07;33.25;;;18.40;;
549;SDS011;20066;48.764;9.176;2024-03-08T08:59:36;37.25;;;19.08;;
549;SDS011;20066;48.764;9.176;2024-03-08T09:02:08;36.58;;;18.63;;
549;SDS011;20066;48.764;9.176;2024-03-08T09:04:39;36.92;;;16.83;;
549;SDS011;20066;48.764;9.176;2024-03-08T09:07:07;39.70;;;17.95;;
549;SDS011;20066;48.764;9.176;2024-03-08T09:09:40;37.63;;;17.02;;
549;SDS011;20066;48.764;9.176;2024-03-08T09:12:09;36.80;;;19.05;;
549;SDS011;20066;48.764;9.176;2024-03-08T09:14:39;34.25;;;17.65;;
549;SDS011;20066;48.764;9.176;2024-03-08T09:17:08;38.55;;;19.13;;
549;SDS011;20066;48.764;9.176;2024-03-08T09:19:36;40.38;;;17.85;;
549;SDS011;20066;48.764;9.176;2024-03-08T09:22:04;39.55;;;18.10;;
549;SDS011;20066;48.764;9.176;2024-03-08T09:24:32;36.30;;;18.17;;
549;SDS011;20066;48.764;9.176;2024-03-08T09:27:01;32.08;;;15.98;;
549;SDS011;20066;48.764;9.176;2024-03-08T09:29:29;35.13;;;17.10;;
549;SDS011;20066;48.764;9.176;2024-03-08T09:31:57;36.95;;;16.67;;
549;SDS011;20066;48.764;9.176;2024-03-08T09:34:25;35.60;;;16.70;;
549;SDS011;20066;48.764;9.176;2024-03-08T09:37:03;35.78;;;16.42;;
549;SDS011;20066;48.764;9.176;2024-03-08T09:39:31;36.92;;;15.98;;
549;SDS011;20066;48.764;9.176;2024-03-08T09:42:01;36.10;;;16.67;;
549;SDS011;20066;48.764;9.176;2024-03-08T09:44:30;39.10;;;19.52;;
549;SDS011;20066;48.764;9.176;2024-03-08T09:46:58;30.95;;;16.98;;
549;SDS011;20066;48.764;9.176;2024-03-08T09:49:28;36.38;;;17.33;;
549;SDS011;20066;48.764;9.176;2024-03-08T09:51:56;49.45;;;24.58;;
549;SDS011;20066;48.764;9.176;2024-03-08T09:54:25;36.65;;;18.05;;
549;SDS011;20066;48.764;9.176;2024-03-08T09:56:53;36.15;;;18.95;;
549;SDS011;20066;48.764;9.176;2024-03-08T09:59:23;34.88;;;16.40;;
549;SDS011;20066;48.764;9.176;2024-03-08T10:02:12;33.53;;;16.40;;
549;SDS011;20066;48.764;9.176;2024-03-08T10:04:43;35.90;;;16.02;;
549;SDS011;20066;48.764;9.176;2024-03-08T10:07:13;28.50;;;15.73;;
549;SDS011;20066;48.764;9.176;2024-03-08T10:09:41;33.78;;;16.85;;
549;SDS011;20066;48.764;9.176;2024-03-08T10:12:13;31.23;;;16.83;;
549;SDS011;20066;48.764;9.176;2024-03-08T10:14:45;34.90;;;17.15;;
549;SDS011;20066;48.764;9.176;2024-03-08T10:17:13;32.42;;;15.85;;
549;SDS011;20066;48.764;9.176;2024-03-08T10:19:48;30.10;;;14.35;;
549;SDS011;20066;48.764;9.176;2024-03-08T10:22:17;32.17;;;15.38;;
549;SDS011;20066;48.764;9.176;2024-03-08T10:24:46;30.42;;;14.63;;
549;SDS011;20066;48.764;9.176;2024-03-08T10:27:14;30.08;;;15.90;;
549;SDS011;20066;48.764;9.176;2024-03-08T10:29:47;29.45;;;14.73;;
549;SDS011;20066;48.764;9.176;2024-03-08T10:32:16;30.48;;;15.32;;
549;SDS011;20066;48.764;9.176;2024-03-08T10:34:44;26.77;;;13.77;;
549;SDS011;20066;48.764;9.176;2024-03-08T10:37:14;32.30;;;15.25;;
549;SDS011;20066;48.764;9.176;2024-03-08T10:39:52;33.17;;;15.35;;
549;SDS011;20066;48.764;9.176;2024-03-08T10:42:29;32.47;;;16.17;;
549;SDS011;20066;48.764;9.176;2024-03-08T10:45:06;33.47;;;16.00;;
549;SDS011;20066;48.764;9.176;2024-03-08T10:47:42;31.90;;;14.77;;
549;SDS011;20066;48.764;9.176;2024-03-08T10:50:17;30.45;;;13.80;;
549;SDS011;20066;48.764;9.176;2024-03-08T10:52:49;31.38;;;14.88;;
549;SDS011;20066;48.764;9.176;2024-03-08T10:55:18;29.73;;;14.15;;
549;SDS011;20066;48.764;9.176;2024-03-08T10:57:47;28.40;;;14.05;;
549;SDS011;20066;48.764;9.176;2024-03-08T11:00:16;29.73;;;15.38;;
549;SDS011;20066;48.764;9.176;2024-03-08T11:02:53;32.30;;;14.23;;
549;SDS011;20066;48.764;9.176;2024-03-08T11:05:31;29.65;;;14.45;;
549;SDS011;20066;48.764;9.176;2024-03-08T11:08:15;26.33;;;13.27;;
549;SDS011;20066;48.764;9.176;2024-03-08T11:10:46;31.13;;;13.93;;
549;SDS011;20066;48.764;9.176;2024-03-08T11:13:34;25.88;;;13.60;;
549;SDS011;20066;48.764;9.176;2024-03-08T11:16:08;28.55;;;14.07;;
549;SDS011;20066;48.764;9.176;2024-03-08T11:18:37;30.33;;;14.18;;
549;SDS011;20066;48.764;9.176;2024-03-08T11:21:07;29.73;;;14.43;;
549;SDS011;20066;48.764;9.176;2024-03-08T11:23:39;28.27;;;14.23;;
549;SDS011;20066;48.764;9.176;2024-03-08T11:26:17;24.85;;;13.05;;
549;SDS011;20066;48.764;9.176;2024-03-08T11:28:45;28.75;;;13.70;;
549;SDS011;20066;48.764;9.176;2024-03-08T11:31:24;28.33;;;14.10;;
549;SDS011;20066;48.764;9.176;2024-03-08T11:33:55;29.35;;;14.90;;
549;SDS011;20066;48.764;9.176;2024-03-08T11:36:24;27.42;;;14.05;;
549;SDS011;20066;48.764;9.176;2024-03-08T11:38:52;30.50;;;14.85;;
549;SDS011;20066;48.764;9.176;2024-03-08T11:41:23;29.67;;;15.68;;
549;SDS011;20066;48.764;9.176;2024-03-08T11:44:01;34.55;;;15.73;;
549;SDS011;20066;48.764;9.176;2024-03-08T11:46:34;29.75;;;14.23;;
549;SDS011;20066;48.764;9.176;2024-03-08T11:49:02;31.73;;;14.23;;
549;SDS011;20066;48.764;9.176;2024-03-08T11:51:32;31.50;;;15.35;;
549;SDS011;20066;48.764;9.176;2024-03-08T11:54:01;30.10;;;14.85;;
549;SDS011;20066;48.764;9.176;2024-03-08T11:56:29;27.83;;;13.85;;
549;SDS011;20066;48.764;9.176;2024-03-08T11:58:58;29.00;;;14.25;;
549;SDS011;20066;48.764;9.176;2024-03-08T12:01:30;30.33;;;15.25;;
549;SDS011;20066;48.764;9.176;2024-03-08T12:04:01;33.92;;;15.13;;
549;SDS011;20066;48.764;9.176;2024-03-08T12:06:36;27.60;;;12.98;;
549;SDS011;20066;48.764;9.176;2024-03-08T12:09:08;33.25;;;15.32;;
549;SDS011;20066;48.764;9.176;2024-03-08T12:11:39;31.83;;;15.40;;
549;SDS011;20066;48.764;9.176;2024-03-08T12:14:09;29.27;;;15.15;;
549;SDS011;20066;48.764;9.176;2024-03-08T12:16:37;35.55;;;15.77;;
549;SDS011;20066;48.764;9.176;2024-03-08T12:19:06;29.48;;;14.02;;
549;SDS011;20066;48.764;9.176;2024-03-08T12:21:35;34.70;;;16.25;;
549;SDS011;20066;48.764;9.176;2024-03-08T12:24:13;30.42;;;15.30;;
549;SDS011;20066;48.764;9.176;2024-03-08T12:26:43;37.95;;;14.50;;
549;SDS011;20066;48.764;9.176;2024-03-08T12:29:14;31.90;;;15.60;;
549;SDS011;20066;48.764;9.176;2024-03-08T12:31:44;34.50;;;16.38;;
549;SDS011;20066;48.764;9.176;2024-03-08T12:34:16;29.33;;;13.80;;
549;SDS011;20066;48.764;9.176;2024-03-08T12:36:47;27.55;;;14.13;;
549;SDS011;20066;48.764;9.176;2024-03-08T12:39:16;28.85;;;14.40;;
549;SDS011;20066;48.764;9.176;2024-03-08T12:41:49;27.98;;;15.10;;
549;SDS011;20066;48.764;9.176;2024-03-08T12:44:18;27.15;;;14.15;;
549;SDS011;20066;48.764;9.176;2024-03-08T12:46:48;34.75;;;16.65;;
549;SDS011;20066;48.764;9.176;2024-03-08T12:49:20;32.00;;;16.20;;
549;SDS011;20066;48.764;9.176;2024-03-08T12:51:49;31.50;;;15.85;;
549;SDS011;20066;48.764;9.176;2024-03-08T12:54:19;32.72;;;14.13;;
549;SDS011;20066;48.764;9.176;2024-03-08T12:56:50;33.38;;;15.90;;
549;SDS011;20066;48.764;9.176;2024-03-08T12:59:20;32.33;;;15.18;;
549;SDS011;20066;48.764;9.176;2024-03-08T13:01:51;32.53;;;15.77;;
549;SDS011;20066;48.764;9.176;2024-03-08T13:04:22;33.50;;;15.45;;
549;SDS011;20066;48.764;9.176;2024-03-08T13:06:50;33.60;;;15.68;;
549;SDS011;20066;48.764;9.176;2024-03-08T13:09:21;32.15;;;15.35;;
549;SDS011;20066;48.764;9.176;2024-03-08T13:11:50;31.77;;;16.45;;
549;SDS011;20066;48.764;9.176;2024-03-08T13:14:20;31.65;;;15.05;;
549;SDS011;20066;48.764;9.176;2024-03-08T13:16:48;33.92;;;15.82;;
549;SDS011;20066;48.764;9.176;2024-03-08T13:19:17;35.90;;;16.55;;
549;SDS011;20066;48.764;9.176;2024-03-08T13:21:49;33.30;;;16.13;;
549;SDS011;20066;48.764;9.176;2024-03-08T13:24:17;28.75;;;15.15;;
549;SDS011;20066;48.764;9.176;2024-03-08T13:26:46;36.47;;;17.13;;
549;SDS011;20066;48.764;9.176;2024-03-08T13:29:14;33.03;;;15.77;;
549;SDS011;20066;48.764;9.176;2024-03-08T13:31:45;34.17;;;16.55;;
549;SDS011;20066;48.764;9.176;2024-03-08T13:34:13;34.08;;;17.10;;
549;SDS011;20066;48.764;9.176;2024-03-08T13:36:42;33.20;;;16.98;;
549;SDS011;20066;48.764;9.176;2024-03-08T13:39:12;32.55;;;16.38;;
549;SDS011;20066;48.764;9.176;2024-03-08T13:41:42;34.05;;;16.08;;
549;SDS011;20066;48.764;9.176;2024-03-08T13:44:11;34.95;;;17.27;;
549;SDS011;20066;48.764;9.176;2024-03-08T13:46:39;33.93;;;16.63;;
549;SDS011;20066;48.764;9.176;2024-03-08T13:49:08;39.88;;;17.95;;
549;SDS011;20066;48.764;9.176;2024-03-08T13:51:37;34.80;;;18.53;;
549;SDS011;20066;48.764;9.176;2024-03-08T13:54:05;33.75;;;17.25;;
549;SDS011;20066;48.764;9.176;2024-03-08T13:56:35;32.10;;;16.77;;
549;SDS011;20066;48.764;9.176;2024-03-08T13:59:03;33.88;;;16.20;;
549;SDS011;20066;48.764;9.176;2024-03-08T14:01:31;33.03;;;15.18;;
549;SDS011;20066;48.764;9.176;2024-03-08T14:04:02;37.08;;;16.90;;
549;SDS011;20066;48.764;9.176;2024-03-08T14:06:31;31.05;;;16.60;;
549;SDS011;20066;48.764;9.176;2024-03-08T14:08:58;37.08;;;16.50;;
549;SDS011;20066;48.764;9.176;2024-03-08T14:11:27;30.70;;;15.20;;
549;SDS011;20066;48.764;9.176;2024-03-08T14:13:56;31.10;;;13.82;;
549;SDS011;20066;48.764;9.176;2024-03-08T14:16:24;31.88;;;15.45;;
549;SDS011;20066;48.764;9.176;2024-03-08T14:18:52;32.40;;;15.23;;
549;SDS011;20066;48.764;9.176;2024-03-08T14:21:20;34.88;;;15.32;;
549;SDS011;20066;48.764;9.176;2024-03-08T14:23:48;31.20;;;14.32;;
549;SDS011;20066;48.764;9.176;2024-03-08T14:26:18;29.17;;;14.48;;
549;SDS011;20066;48.764;9.176;2024-03-08T14:28:47;30.48;;;15.43;;
549;SDS011;20066;48.764;9.176;2024-03-08T14:31:19;28.35;;;14.23;;
549;SDS011;20066;48.764;9.176;2024-03-08T14:33:50;31.85;;;16.77;;
549;SDS011;20066;48.764;9.176;2024-03-08T14:36:19;30.47;;;15.60;;
549;SDS011;20066;48.764;9.176;2024-03-08T14:38:47;33.33;;;16.10;;
549;SDS011;20066;48.764;9.176;2024-03-08T14:41:15;29.07;;;14.50;;
549;SDS011;20066;48.764;9.176;2024-03-08T14:43:43;27.07;;;14.90;;
549;SDS011;20066;48.764;9.176;2024-03-08T14:46:11;31.47;;;16.33;;
549;SDS011;20066;48.764;9.176;2024-03-08T14:48:46;30.67;;;15.30;;
549;SDS011;20066;48.764;9.176;2024-03-08T14:51:19;28.70;;;15.67;;
549;SDS011;20066;48.764;9.176;2024-03-08T14:53:48;37.47;;;16.73;;
549;SDS011;20066;48.764;9.176;2024-03-08T14:56:17;31.53;;;15.20;;
549;SDS011;20066;48.764;9.176;2024-03-08T14:58:46;30.17;;;14.73;;
549;SDS011;20066;48.764;9.176;2024-03-08T15:01:16;34.07;;;15.00;;